Time;durP1;ratioP1;P1;durP2;ratioP2;P2;SDS_P1;SDS_P2;PMS_P1;PMS_P2;Temp;Humidity;BMP_temperature;BMP_pressure;BME280_temperature;BME280_humidity;BME280_pressure;Samples;Min_cycle;Max_cycle;Signal;HPM_P1;HPM_P2
2021/10/22 00:00:35;;;;;;;6.50;2.23;;;11.20;99.90;;;;;;4990255;28;20215;-86
2021/10/22 00:03:04;;;;;;;13.07;2.90;;;11.20;99.90;;;;;;4992671;28;20227;-90
2021/10/22 00:05:33;;;;;;;12.80;2.70;;;11.20;99.90;;;;;;4991968;28;20204;-85
2021/10/22 00:08:00;;;;;;;12.20;3.57;;;11.20;99.90;;;;;;4992593;28;20204;-84
2021/10/22 00:10:27;;;;;;;12.10;2.10;;;11.30;99.90;;;;;;4992362;28;20185;-88
2021/10/22 00:12:54;;;;;;;12.30;3.20;;;11.30;99.90;;;;;;4992167;28;20208;-87
2021/10/22 00:15:21;;;;;;;16.37;2.83;;;11.30;99.90;;;;;;4993535;28;20944;-86
2021/10/22 00:17:48;;;;;;;19.17;2.77;;;11.20;99.90;;;;;;4993002;28;20208;-86
2021/10/22 00:20:17;;;;;;;12.63;3.43;;;11.20;99.90;;;;;;4992183;28;20224;-87
2021/10/22 00:22:44;;;;;;;8.77;2.70;;;11.20;99.90;;;;;;5012232;28;20215;-87
2021/10/22 00:25:11;;;;;;;11.47;2.00;;;11.20;99.90;;;;;;5012402;28;20218;-87
2021/10/22 00:27:38;;;;;;;8.00;2.13;;;11.30;99.90;;;;;;5012155;28;20603;-84
2021/10/22 00:30:06;;;;;;;14.70;2.43;;;11.30;99.90;;;;;;5012163;28;20230;-88
2021/10/22 00:32:33;;;;;;;10.03;2.83;;;11.20;99.90;;;;;;5013246;28;20611;-88
2021/10/22 00:35:00;;;;;;;11.50;2.70;;;11.20;99.90;;;;;;5012868;28;20826;-87
2021/10/22 00:37:28;;;;;;;13.20;2.60;;;11.20;99.90;;;;;;5013227;28;20222;-85
2021/10/22 00:39:55;;;;;;;16.97;2.67;;;11.20;99.90;;;;;;5012138;28;20605;-83
2021/10/22 00:42:22;;;;;;;8.13;2.20;;;11.20;99.90;;;;;;4999131;28;20790;-85
2021/10/22 00:44:52;;;;;;;10.50;1.87;;;11.20;99.90;;;;;;4992562;28;20220;-88
2021/10/22 00:47:19;;;;;;;8.67;2.90;;;11.20;99.90;;;;;;4992209;28;20203;-87
2021/10/22 00:49:46;;;;;;;9.73;2.63;;;11.10;99.90;;;;;;4993293;28;20211;-86
2021/10/22 00:52:15;;;;;;;10.60;2.20;;;11.10;99.90;;;;;;4992008;28;20200;-88
2021/10/22 00:54:43;;;;;;;9.80;3.07;;;11.20;99.90;;;;;;4993439;28;20227;-91
2021/10/22 00:57:13;;;;;;;14.23;3.10;;;11.20;99.90;;;;;;4992716;28;20889;-87
2021/10/22 00:59:40;;;;;;;13.03;3.47;;;11.20;99.90;;;;;;4993458;28;20263;-85
2021/10/22 01:02:08;;;;;;;11.97;2.87;;;11.20;99.90;;;;;;4993899;28;20234;-87
2021/10/22 01:04:35;;;;;;;12.60;3.33;;;11.20;99.90;;;;;;4992683;28;20200;-85
2021/10/22 01:07:03;;;;;;;12.20;1.87;;;11.20;99.90;;;;;;4993480;28;20865;-88
2021/10/22 01:09:30;;;;;;;9.17;3.00;;;11.20;99.90;;;;;;4993057;28;20232;-84
2021/10/22 01:11:59;;;;;;;12.47;2.43;;;11.20;99.90;;;;;;4992583;28;20676;-86
2021/10/22 01:14:26;;;;;;;13.80;3.50;;;11.10;99.90;;;;;;4993146;28;20200;-87
2021/10/22 01:16:53;;;;;;;14.40;3.13;;;11.20;99.90;;;;;;4993366;28;20200;-88
2021/10/22 01:19:20;;;;;;;11.53;2.60;;;11.10;99.90;;;;;;4991728;28;20642;-87
2021/10/22 01:21:49;;;;;;;11.87;2.50;;;11.20;99.90;;;;;;4992030;28;20211;-85
2021/10/22 01:24:18;;;;;;;12.63;2.80;;;11.20;99.90;;;;;;4993218;28;20210;-89
2021/10/22 01:26:45;;;;;;;9.00;2.73;;;11.20;99.90;;;;;;4992237;28;20207;-86
2021/10/22 01:29:12;;;;;;;15.10;2.60;;;11.20;99.90;;;;;;4991719;28;20215;-86
2021/10/22 01:31:38;;;;;;;9.03;2.57;;;11.30;99.90;;;;;;4989122;28;20203;-89
2021/10/22 01:34:06;;;;;;;11.03;3.03;;;11.30;99.90;;;;;;4994165;28;20222;-89
2021/10/22 01:36:33;;;;;;;17.27;3.30;;;11.20;99.90;;;;;;4992745;28;20664;-85
2021/10/22 01:39:02;;;;;;;10.07;3.00;;;11.30;99.90;;;;;;4992800;28;20230;-87
2021/10/22 01:41:29;;;;;;;10.87;3.33;;;11.20;99.90;;;;;;4993551;28;20219;-86
2021/10/22 01:44:00;;;;;;;11.17;2.40;;;11.30;99.90;;;;;;4994389;28;20204;-86
2021/10/22 01:46:27;;;;;;;12.43;2.80;;;11.30;99.90;;;;;;4996107;28;20234;-85
2021/10/22 01:48:54;;;;;;;15.63;3.03;;;11.30;99.90;;;;;;4993590;28;20215;-84
2021/10/22 01:51:22;;;;;;;12.70;2.67;;;11.30;99.90;;;;;;4992161;28;20218;-90
2021/10/22 01:53:49;;;;;;;12.80;3.80;;;11.30;99.90;;;;;;4994564;28;20200;-85
2021/10/22 01:56:17;;;;;;;18.50;3.40;;;11.30;99.90;;;;;;4993921;28;20204;-83
2021/10/22 01:58:44;;;;;;;11.57;3.30;;;11.30;99.90;;;;;;5013260;28;20216;-88
2021/10/22 02:01:11;;;;;;;17.93;3.47;;;11.30;99.90;;;;;;5012021;28;20207;-89
2021/10/22 02:03:38;;;;;;;9.03;2.30;;;11.20;99.90;;;;;;5012283;28;20203;-86
2021/10/22 02:06:04;;;;;;;14.07;3.73;;;11.30;99.90;;;;;;5005342;28;20238;-88
2021/10/22 02:08:31;;;;;;;22.43;3.43;;;11.30;99.90;;;;;;4992816;28;20251;-90
2021/10/22 02:10:58;;;;;;;10.37;2.77;;;11.30;99.90;;;;;;4994740;28;20204;-88
2021/10/22 02:13:26;;;;;;;20.07;3.57;;;11.40;99.90;;;;;;4993398;28;20204;-88
2021/10/22 02:15:53;;;;;;;13.83;2.80;;;11.40;99.90;;;;;;4993286;28;20212;-85
2021/10/22 02:18:20;;;;;;;15.43;2.90;;;11.40;99.90;;;;;;4993087;28;20196;-87
2021/10/22 02:20:47;;;;;;;12.87;3.17;;;11.40;99.90;;;;;;4990417;28;20232;-88
2021/10/22 02:23:14;;;;;;;11.20;2.70;;;11.40;99.90;;;;;;4989616;28;20208;-86
2021/10/22 02:25:41;;;;;;;16.23;3.87;;;11.40;99.90;;;;;;4990191;28;20219;-92
2021/10/22 02:28:08;;;;;;;11.93;2.50;;;11.40;99.90;;;;;;5002151;28;20222;-87
2021/10/22 02:30:36;;;;;;;13.90;2.97;;;11.40;99.90;;;;;;4996205;28;20223;-87
2021/10/22 02:33:03;;;;;;;24.87;3.33;;;11.50;99.90;;;;;;4994538;28;20219;-87
2021/10/22 02:35:30;;;;;;;12.57;2.83;;;11.50;99.90;;;;;;4994182;28;20192;-84
2021/10/22 02:37:57;;;;;;;17.80;3.03;;;11.50;99.90;;;;;;4993937;28;20211;-88
2021/10/22 02:40:24;;;;;;;13.37;3.20;;;11.50;99.90;;;;;;4993852;28;20227;-86
2021/10/22 02:42:50;;;;;;;14.73;3.03;;;11.50;99.90;;;;;;4992258;28;20216;-87
2021/10/22 02:45:17;;;;;;;15.17;2.73;;;11.50;99.90;;;;;;4991335;28;20220;-85
2021/10/22 02:47:46;;;;;;;12.83;2.40;;;11.50;99.90;;;;;;5005241;28;20215;-88
2021/10/22 02:50:13;;;;;;;11.43;2.43;;;11.50;99.90;;;;;;5014036;28;20290;-87
2021/10/22 02:52:40;;;;;;;10.27;2.30;;;11.50;99.90;;;;;;5013432;28;20199;-89
2021/10/22 02:55:08;;;;;;;11.97;3.10;;;11.50;99.90;;;;;;5013491;28;20226;-86
2021/10/22 02:57:35;;;;;;;12.53;2.50;;;11.60;99.90;;;;;;5011808;28;20214;-86
2021/10/22 03:00:02;;;;;;;14.10;2.63;;;11.60;99.90;;;;;;5011432;28;20254;-86
2021/10/22 03:02:29;;;;;;;9.33;2.97;;;11.60;99.90;;;;;;5012394;28;20231;-85
2021/10/22 03:04:57;;;;;;;9.67;2.00;;;11.60;99.90;;;;;;5013318;28;20203;-87
2021/10/22 03:07:24;;;;;;;11.50;2.50;;;11.60;99.90;;;;;;5000789;28;20208;-87
2021/10/22 03:09:51;;;;;;;5.63;1.87;;;11.60;99.90;;;;;;4993851;28;20943;-87
2021/10/22 03:12:18;;;;;;;9.70;2.40;;;11.50;99.90;;;;;;4994312;28;20215;-90
2021/10/22 03:14:44;;;;;;;8.50;2.73;;;11.60;99.90;;;;;;4993731;28;20215;-86
2021/10/22 03:17:11;;;;;;;6.13;1.90;;;11.60;99.90;;;;;;5013318;28;20210;-89
2021/10/22 03:19:38;;;;;;;14.67;2.83;;;11.60;99.90;;;;;;5011651;28;20223;-85
2021/10/22 03:22:06;;;;;;;13.70;3.27;;;11.60;99.90;;;;;;4994228;28;20204;-85
2021/10/22 03:24:33;;;;;;;9.70;2.33;;;11.60;99.90;;;;;;4993873;28;20305;-85
2021/10/22 03:27:00;;;;;;;12.90;3.83;;;11.60;99.90;;;;;;4993807;28;20207;-88
2021/10/22 03:29:27;;;;;;;9.23;1.93;;;11.60;99.90;;;;;;5009169;28;20203;-87
2021/10/22 03:31:54;;;;;;;7.83;2.00;;;11.70;99.90;;;;;;5014019;28;20213;-86
2021/10/22 03:34:21;;;;;;;9.20;2.63;;;11.70;99.90;;;;;;4996986;28;20266;-89
2021/10/22 03:36:48;;;;;;;8.57;3.00;;;11.70;99.90;;;;;;4997683;28;20199;-88
2021/10/22 03:39:16;;;;;;;8.43;1.63;;;11.70;99.90;;;;;;5011589;28;20218;-90
2021/10/22 03:41:43;;;;;;;11.47;2.33;;;11.70;99.90;;;;;;5012902;28;20199;-84
2021/10/22 03:44:10;;;;;;;9.63;3.27;;;11.70;99.90;;;;;;5000342;28;20208;-88
2021/10/22 03:46:37;;;;;;;8.60;2.57;;;11.70;99.90;;;;;;4993418;28;20366;-86
2021/10/22 03:49:04;;;;;;;12.97;2.73;;;11.70;99.90;;;;;;4993073;28;20211;-89
2021/10/22 03:51:31;;;;;;;12.77;2.60;;;11.70;99.90;;;;;;5011182;28;20207;-86
2021/10/22 03:53:58;;;;;;;5.67;2.17;;;11.70;99.90;;;;;;5010889;28;20923;-85
2021/10/22 03:56:26;;;;;;;10.03;2.80;;;11.70;99.90;;;;;;5009653;28;20561;-87
2021/10/22 03:58:53;;;;;;;10.80;3.10;;;11.70;99.90;;;;;;5010926;28;20219;-86
2021/10/22 04:01:20;;;;;;;12.13;2.50;;;11.70;99.90;;;;;;5011543;28;20803;-86
2021/10/22 04:03:47;;;;;;;16.57;3.07;;;11.70;99.90;;;;;;5012164;28;20620;-88
2021/10/22 04:06:14;;;;;;;10.40;2.20;;;11.60;99.90;;;;;;4997414;28;20239;-86
2021/10/22 04:08:41;;;;;;;9.07;2.77;;;11.60;99.90;;;;;;4994831;28;20231;-85
2021/10/22 04:11:08;;;;;;;10.07;2.50;;;11.60;99.90;;;;;;5012669;28;20195;-85
2021/10/22 04:13:36;;;;;;;13.10;2.83;;;11.60;99.90;;;;;;5012363;28;20226;-83
2021/10/22 04:16:03;;;;;;;14.90;2.47;;;11.60;99.90;;;;;;5013729;28;20214;-85
2021/10/22 04:18:30;;;;;;;12.93;2.80;;;11.60;99.90;;;;;;5004311;28;20220;-83
2021/10/22 04:20:57;;;;;;;15.30;3.33;;;11.60;99.90;;;;;;4994229;28;20239;-85
2021/10/22 04:23:24;;;;;;;12.07;2.83;;;11.60;99.90;;;;;;4994870;28;20710;-91
2021/10/22 04:25:51;;;;;;;10.63;2.73;;;11.60;99.90;;;;;;4995370;28;20202;-88
2021/10/22 04:28:18;;;;;;;12.77;2.63;;;11.60;99.90;;;;;;4995573;28;20247;-87
2021/10/22 04:30:47;;;;;;;15.57;2.97;;;11.60;99.90;;;;;;5002360;28;20274;-89
2021/10/22 04:33:14;;;;;;;19.43;3.63;;;11.70;99.90;;;;;;5005480;28;20216;-85
2021/10/22 04:35:41;;;;;;;9.97;2.57;;;11.70;99.90;;;;;;5003339;28;20204;-85
2021/10/22 04:40:55;;;;;;;14.10;3.00;;;11.60;99.90;;;;;;5009228;28;20302;-86
2021/10/22 04:43:23;;;;;;;12.20;2.83;;;11.60;99.90;;;;;;5023232;28;20214;-85
2021/10/22 04:45:54;;;;;;;13.73;2.73;;;11.60;99.90;;;;;;5010096;28;20860;-87
2021/10/22 04:48:21;;;;;;;11.97;2.90;;;11.70;99.90;;;;;;4991030;28;20214;-85
2021/10/22 04:50:50;;;;;;;14.87;3.13;;;11.60;99.90;;;;;;4991587;28;20204;-86
2021/10/22 04:53:18;;;;;;;11.50;3.20;;;11.70;99.90;;;;;;4991681;28;20207;-87
2021/10/22 04:55:45;;;;;;;12.13;3.20;;;11.70;99.90;;;;;;4992092;28;20290;-89
2021/10/22 04:58:12;;;;;;;10.80;3.00;;;11.60;99.90;;;;;;4992860;28;20636;-89
2021/10/22 05:00:39;;;;;;;12.07;3.00;;;11.60;99.90;;;;;;4992055;28;20227;-88
2021/10/22 05:03:07;;;;;;;7.00;2.43;;;11.60;99.90;;;;;;4991914;28;20257;-89
2021/10/22 05:05:34;;;;;;;16.47;3.07;;;11.70;99.90;;;;;;4990197;28;20200;-88
2021/10/22 05:08:01;;;;;;;15.00;3.47;;;11.70;99.90;;;;;;4991582;28;20259;-87
2021/10/22 05:10:28;;;;;;;9.63;2.47;;;11.60;99.90;;;;;;5003897;28;20215;-88
2021/10/22 05:12:55;;;;;;;14.07;3.00;;;11.60;99.90;;;;;;5011121;28;20234;-84
2021/10/22 05:15:22;;;;;;;11.40;2.77;;;11.60;99.90;;;;;;5011610;28;20199;-91
2021/10/22 05:17:48;;;;;;;13.50;3.00;;;11.60;99.90;;;;;;5011282;28;20199;-88
2021/10/22 05:20:17;;;;;;;13.67;2.97;;;11.60;99.90;;;;;;5010661;28;20813;-86
2021/10/22 05:22:44;;;;;;;9.57;2.33;;;11.60;99.90;;;;;;5000591;28;20211;-90
2021/10/22 05:25:12;;;;;;;14.43;2.77;;;11.60;99.90;;;;;;4991556;28;20235;-88
2021/10/22 05:27:40;;;;;;;8.77;2.77;;;11.60;99.90;;;;;;4991154;28;20210;-88
2021/10/22 05:30:09;;;;;;;13.23;3.20;;;11.60;99.90;;;;;;5002856;28;20510;-91
2021/10/22 05:32:36;;;;;;;11.60;2.70;;;11.60;99.90;;;;;;5011108;28;20195;-91
2021/10/22 05:35:03;;;;;;;14.47;2.80;;;11.60;99.90;;;;;;5006160;28;20214;-90
2021/10/22 05:37:31;;;;;;;13.80;3.33;;;11.60;99.90;;;;;;4991541;28;20216;-83
2021/10/22 05:39:58;;;;;;;15.27;3.33;;;11.60;99.90;;;;;;4990991;28;20214;-85
2021/10/22 05:42:25;;;;;;;15.37;3.00;;;11.60;99.90;;;;;;4991249;28;20715;-86
2021/10/22 05:44:53;;;;;;;15.60;3.57;;;11.60;99.90;;;;;;4991192;28;20207;-87
2021/10/22 05:47:20;;;;;;;16.67;4.17;;;11.60;99.90;;;;;;4991724;28;20207;-90
2021/10/22 05:49:47;;;;;;;18.13;4.87;;;11.60;99.90;;;;;;4991706;28;20208;-88
2021/10/22 05:52:14;;;;;;;11.17;3.20;;;11.60;99.90;;;;;;5006894;28;20215;-90
2021/10/22 05:54:42;;;;;;;10.00;2.57;;;11.60;99.90;;;;;;5010594;28;20203;-86
2021/10/22 05:57:09;;;;;;;9.73;2.50;;;11.60;99.90;;;;;;5010731;28;20218;-83
2021/10/22 05:59:37;;;;;;;14.03;2.80;;;11.50;99.90;;;;;;5002460;28;20208;-87
2021/10/22 06:02:04;;;;;;;11.40;2.63;;;11.50;99.90;;;;;;4993911;28;20227;-87
2021/10/22 06:04:30;;;;;;;11.10;2.60;;;11.60;99.90;;;;;;4993322;28;20219;-89
2021/10/22 06:06:58;;;;;;;15.93;2.70;;;11.60;99.90;;;;;;4992148;28;20211;-85
2021/10/22 06:09:24;;;;;;;22.17;4.17;;;11.60;99.90;;;;;;4993742;28;20259;-87
2021/10/22 06:11:53;;;;;;;17.43;3.37;;;11.60;99.90;;;;;;4994990;28;20207;-85
2021/10/22 06:14:19;;;;;;;14.03;3.47;;;11.60;99.90;;;;;;4994155;28;20227;-87
2021/10/22 06:16:46;;;;;;;13.27;2.97;;;11.60;99.90;;;;;;4996383;28;20204;-90
2021/10/22 06:19:16;;;;;;;12.60;3.07;;;11.60;99.90;;;;;;5011762;28;20207;-89
2021/10/22 06:21:55;;;;;;;16.07;3.73;;;11.70;99.90;;;;;;5013424;28;20235;-88
2021/10/22 06:24:22;;;;;;;18.13;3.43;;;11.60;99.90;;;;;;5003550;28;20234;-88
2021/10/22 06:26:49;;;;;;;11.80;3.27;;;11.60;99.90;;;;;;4994993;28;20203;-90
2021/10/22 06:29:17;;;;;;;16.40;4.20;;;11.70;99.90;;;;;;4995248;28;20199;-90
2021/10/22 06:31:44;;;;;;;13.13;2.77;;;11.70;99.90;;;;;;4994219;28;20577;-86
2021/10/22 06:34:11;;;;;;;12.83;2.77;;;11.70;99.90;;;;;;5007020;28;20214;-89
2021/10/22 06:36:38;;;;;;;11.50;3.07;;;11.70;99.90;;;;;;5013367;28;20207;-87
2021/10/22 06:39:06;;;;;;;17.47;3.70;;;11.80;99.90;;;;;;5012525;28;20203;-89
2021/10/22 06:41:33;;;;;;;23.50;4.33;;;11.80;99.90;;;;;;4994326;28;20259;-86
2021/10/22 06:44:00;;;;;;;16.23;3.97;;;11.80;99.90;;;;;;4994467;28;20200;-87
2021/10/22 06:46:28;;;;;;;19.40;3.23;;;11.80;99.90;;;;;;4994236;28;20207;-87
2021/10/22 06:48:55;;;;;;;12.73;3.00;;;11.80;99.90;;;;;;5006850;28;20291;-88
2021/10/22 06:51:23;;;;;;;12.17;3.70;;;11.80;99.90;;;;;;5008968;28;20240;-85
2021/10/22 06:53:50;;;;;;;14.40;2.90;;;11.90;99.90;;;;;;5003725;28;20553;-86
2021/10/22 06:56:17;;;;;;;11.37;2.53;;;11.90;99.90;;;;;;5013316;28;20211;-85
2021/10/22 06:58:44;;;;;;;13.00;3.07;;;11.90;99.90;;;;;;4997925;28;20215;-91
2021/10/22 07:01:11;;;;;;;12.30;3.37;;;11.90;99.90;;;;;;4994391;28;20235;-83
2021/10/22 07:03:41;;;;;;;13.73;2.87;;;11.90;99.90;;;;;;4993397;28;20510;-85
2021/10/22 07:08:54;;;;;;;16.17;4.40;;;11.90;99.90;;;;;;4992665;28;20299;-84
2021/10/22 07:11:21;;;;;;;15.63;4.03;;;12.00;99.90;;;;;;4991646;28;20216;-85
2021/10/22 07:13:52;;;;;;;16.83;4.50;;;12.00;99.90;;;;;;4992742;28;20295;-83
2021/10/22 07:16:19;;;;;;;17.50;3.47;;;11.90;99.90;;;;;;4992771;28;20199;-82
2021/10/22 07:18:49;;;;;;;15.93;3.83;;;12.00;99.90;;;;;;4992762;28;20220;-92
2021/10/22 07:24:48;;;;;;;15.83;3.23;;;12.00;99.90;;;;;;4952391;28;20209;-86
2021/10/22 07:27:15;;;;;;;12.97;3.50;;;12.00;99.90;;;;;;4992229;28;20196;-88
2021/10/22 07:29:41;;;;;;;13.13;3.47;;;12.00;99.90;;;;;;4992176;28;20223;-88
2021/10/22 07:32:09;;;;;;;18.20;4.30;;;12.00;99.90;;;;;;5008361;28;20647;-85
2021/10/22 07:34:37;;;;;;;16.60;3.73;;;12.00;99.90;;;;;;5010933;28;20584;-89
2021/10/22 07:37:04;;;;;;;16.27;4.57;;;12.10;99.90;;;;;;4993491;28;20216;-86
2021/10/22 07:39:31;;;;;;;12.77;3.37;;;12.10;99.90;;;;;;4999434;28;20214;-85
2021/10/22 07:41:58;;;;;;;15.17;3.33;;;12.10;99.90;;;;;;5011989;28;20226;-88
2021/10/22 07:44:25;;;;;;;13.43;3.67;;;12.10;99.90;;;;;;5012617;28;20211;-93
2021/10/22 07:46:53;;;;;;;15.20;3.40;;;12.10;99.90;;;;;;5012901;28;20262;-84
2021/10/22 07:49:20;;;;;;;17.50;3.63;;;12.00;99.90;;;;;;5011749;28;20592;-85
2021/10/22 07:51:52;;;;;;;18.13;3.57;;;12.00;99.90;;;;;;5010323;28;20207;-91
2021/10/22 07:54:19;;;;;;;12.50;3.20;;;11.90;99.90;;;;;;5009307;28;20234;-85
2021/10/22 07:56:46;;;;;;;13.23;3.43;;;11.90;99.90;;;;;;4992138;28;20214;-92
2021/10/22 07:59:13;;;;;;;26.00;5.30;;;11.70;99.90;;;;;;4993809;28;20231;-91
2021/10/22 08:01:42;;;;;;;14.23;3.70;;;11.70;99.90;;;;;;4992707;28;20227;-89
2021/10/22 08:04:12;;;;;;;20.83;4.53;;;11.60;99.90;;;;;;4993107;28;20207;-86
2021/10/22 08:06:39;;;;;;;16.67;4.37;;;11.40;99.90;;;;;;4992128;28;20200;-88
2021/10/22 08:09:08;;;;;;;17.23;3.70;;;11.40;99.90;;;;;;4992899;28;20664;-90
2021/10/22 08:11:35;;;;;;;21.40;3.80;;;11.40;99.90;;;;;;4992882;28;20211;-85
2021/10/22 08:14:03;;;;;;;24.67;4.47;;;11.40;99.90;;;;;;4993139;28;20676;-87
2021/10/22 08:16:30;;;;;;;10.27;2.63;;;11.40;99.90;;;;;;4991798;28;20839;-86
2021/10/22 08:18:57;;;;;;;18.17;2.90;;;11.40;99.90;;;;;;4992164;28;20218;-87
2021/10/22 08:21:35;;;;;;;16.53;3.87;;;11.60;99.90;;;;;;4992380;28;20230;-86
2021/10/22 08:24:02;;;;;;;15.37;3.63;;;11.60;99.90;;;;;;4991661;28;20205;-82
2021/10/22 08:26:31;;;;;;;15.03;3.70;;;11.70;99.90;;;;;;5006945;28;20212;-85
2021/10/22 08:28:57;;;;;;;17.77;3.90;;;11.80;99.90;;;;;;5007627;28;20210;-89
2021/10/22 08:31:25;;;;;;;16.50;3.53;;;11.80;99.90;;;;;;4991758;28;20207;-88
2021/10/22 08:33:52;;;;;;;15.37;3.60;;;11.90;99.90;;;;;;4992123;28;20204;-86
2021/10/22 08:36:19;;;;;;;14.60;3.37;;;11.90;99.90;;;;;;4991687;28;20276;-91
2021/10/22 08:38:46;;;;;;;14.13;2.70;;;11.90;99.90;;;;;;5009680;28;20218;-87
2021/10/22 08:41:16;;;;;;;12.07;2.77;;;12.00;99.90;;;;;;5011565;28;20223;-86
2021/10/22 08:43:45;;;;;;;16.77;3.80;;;12.00;99.90;;;;;;5011441;28;20608;-87
2021/10/22 08:46:14;;;;;;;19.00;3.80;;;12.00;99.90;;;;;;4998191;28;20244;-85
2021/10/22 08:48:42;;;;;;;14.10;3.03;;;12.10;99.90;;;;;;4992010;28;20224;-85
2021/10/22 08:51:09;;;;;;;20.80;5.27;;;12.00;99.90;;;;;;4988904;28;20278;-82
2021/10/22 08:53:36;;;;;;;18.47;4.27;;;12.00;99.90;;;;;;4987578;28;20235;-90
2021/10/22 08:56:05;;;;;;;11.97;3.17;;;12.10;99.90;;;;;;4990405;28;20211;-86
2021/10/22 08:58:32;;;;;;;19.37;3.70;;;12.10;99.90;;;;;;4990346;28;20210;-87
2021/10/22 09:01:00;;;;;;;20.97;3.83;;;12.20;99.90;;;;;;4990628;28;20196;-88
2021/10/22 09:03:37;;;;;;;16.57;3.83;;;12.20;99.90;;;;;;4989685;28;20508;-84
2021/10/22 09:06:08;;;;;;;14.63;3.73;;;12.30;99.90;;;;;;5000564;28;20207;-85
2021/10/22 09:08:37;;;;;;;17.80;3.30;;;12.30;99.90;;;;;;5001889;28;20240;-83
2021/10/22 09:11:06;;;;;;;15.73;3.83;;;12.40;99.90;;;;;;4998344;28;20215;-88
2021/10/22 09:13:36;;;;;;;23.07;4.37;;;12.50;99.90;;;;;;5001845;28;20207;-86
2021/10/22 09:16:19;;;;;;;15.03;4.60;;;12.60;99.90;;;;;;5003733;28;20202;-87
2021/10/22 09:18:47;;;;;;;21.83;4.00;;;12.70;99.90;;;;;;4997451;28;20217;-87
2021/10/22 09:21:14;;;;;;;20.40;3.67;;;12.80;99.90;;;;;;5001936;28;20317;-85
2021/10/22 09:23:50;;;;;;;20.90;4.40;;;12.90;99.90;;;;;;4992149;28;20211;-84
2021/10/22 09:26:19;;;;;;;12.73;3.30;;;13.00;99.90;;;;;;5000427;28;20198;-83
2021/10/22 09:28:48;;;;;;;9.47;2.90;;;13.00;99.90;;;;;;4997610;28;20207;-84
2021/10/22 09:31:18;;;;;;;10.27;2.90;;;13.00;99.90;;;;;;4994470;28;20212;-88
2021/10/22 09:33:52;;;;;;;9.43;2.77;;;12.90;99.90;;;;;;4994352;28;20215;-89
2021/10/22 09:36:35;;;;;;;17.47;3.23;;;12.80;99.90;;;;;;4995307;28;20217;-83
2021/10/22 09:39:08;;;;;;;17.17;3.67;;;12.90;99.90;;;;;;5004134;28;20218;-86
2021/10/22 09:41:37;;;;;;;9.80;3.03;;;12.90;99.90;;;;;;5001138;28;20290;-87
2021/10/22 09:44:23;;;;;;;14.60;3.80;;;12.90;99.90;;;;;;5004836;28;20735;-91
2021/10/22 09:46:52;;;;;;;14.93;3.83;;;12.90;99.90;;;;;;4997495;28;20207;-80
2021/10/22 09:49:26;;;;;;;13.50;2.73;;;12.90;99.90;;;;;;5007829;28;20207;-89
2021/10/22 09:51:55;;;;;;;13.47;2.60;;;12.90;99.90;;;;;;5000652;28;20218;-84
2021/10/22 09:54:27;;;;;;;21.00;4.90;;;12.90;99.90;;;;;;5002799;28;20215;-85
2021/10/22 09:56:56;;;;;;;16.37;3.97;;;12.90;99.90;;;;;;5008173;28;20195;-82
2021/10/22 09:59:26;;;;;;;13.93;3.67;;;12.90;99.90;;;;;;5002034;28;20295;-85
2021/10/22 10:01:59;;;;;;;16.17;4.50;;;12.90;99.90;;;;;;5010061;28;20267;-85
2021/10/22 10:04:26;;;;;;;10.30;2.63;;;12.80;99.90;;;;;;5013423;28;20199;-89
2021/10/22 10:06:54;;;;;;;24.70;5.07;;;12.80;99.90;;;;;;5003697;28;20204;-86
2021/10/22 10:09:22;;;;;;;14.53;4.27;;;12.80;99.90;;;;;;5006718;28;20243;-85
2021/10/22 10:11:50;;;;;;;13.30;3.17;;;12.80;99.90;;;;;;5001226;28;20238;-87
2021/10/22 10:14:17;;;;;;;15.73;4.07;;;12.80;99.90;;;;;;5013928;28;20286;-91
2021/10/22 10:16:46;;;;;;;15.37;4.00;;;12.90;99.90;;;;;;5013789;28;20203;-89
2021/10/22 10:19:21;;;;;;;13.50;4.20;;;13.00;99.90;;;;;;5012013;28;20213;-84
2021/10/22 10:21:50;;;;;;;15.03;3.37;;;13.10;99.90;;;;;;5014210;28;20211;-85
2021/10/22 10:24:19;;;;;;;13.80;3.40;;;13.10;99.90;;;;;;5013678;28;20206;-84
2021/10/22 10:27:02;;;;;;;14.50;4.73;;;13.30;99.90;;;;;;5010797;28;20211;-84
2021/10/22 10:29:30;;;;;;;13.90;3.57;;;13.40;99.90;;;;;;5011292;28;20195;-85
2021/10/22 10:32:01;;;;;;;16.53;3.30;;;13.30;99.90;;;;;;5001522;28;20216;-86
2021/10/22 10:34:43;;;;;;;17.13;3.60;;;13.20;99.90;;;;;;4992675;28;20200;-89
2021/10/22 10:37:28;;;;;;;15.90;4.23;;;13.10;99.90;;;;;;5000499;28;20290;-83
2021/10/22 10:40:05;;;;;;;21.60;3.70;;;13.10;99.90;;;;;;5019286;23;20230;-85
2021/10/22 10:42:41;;;;;;;20.97;4.87;;;12.90;99.90;;;;;;4993500;28;20222;-86
2021/10/22 10:45:15;;;;;;;20.20;4.13;;;12.80;99.90;;;;;;4996445;28;20203;-88
2021/10/22 10:47:51;;;;;;;16.33;4.17;;;12.60;99.90;;;;;;4993845;28;20250;-87
2021/10/22 10:50:23;;;;;;;16.20;2.90;;;12.50;99.90;;;;;;4994442;28;20210;-83
2021/10/22 10:55:29;;;;;;;21.83;4.50;;;12.40;99.90;;;;;;5427525;23;20277;-90
2021/10/22 10:57:59;;;;;;;18.77;4.73;;;12.30;99.90;;;;;;5033834;28;20195;-85
2021/10/22 11:00:30;;;;;;;17.77;3.60;;;12.40;99.90;;;;;;5039904;28;20217;-88
2021/10/22 11:03:10;;;;;;;18.43;3.80;;;12.50;99.90;;;;;;5053572;28;20740;-87
2021/10/22 11:06:05;;;;;;;21.23;4.50;;;12.50;99.90;;;;;;5053828;28;20202;-91
2021/10/22 11:08:43;;;;;;;21.00;4.27;;;12.40;99.90;;;;;;5053464;28;20511;-88
2021/10/22 11:11:26;;;;;;;17.77;4.20;;;12.30;99.90;;;;;;5054264;28;20278;-88
2021/10/22 11:13:54;;;;;;;15.83;3.97;;;12.30;99.90;;;;;;5042479;28;20666;-90
2021/10/22 11:16:35;;;;;;;26.57;5.77;;;12.30;99.90;;;;;;5032400;28;20601;-88
2021/10/22 11:19:04;;;;;;;15.20;4.17;;;12.40;99.90;;;;;;5033034;28;20207;-82
2021/10/22 11:21:34;;;;;;;15.47;3.73;;;12.50;99.90;;;;;;5032993;28;20214;-88
2021/10/22 11:24:16;;;;;;;14.67;3.50;;;12.60;99.90;;;;;;5033325;28;20214;-85
2021/10/22 11:26:44;;;;;;;17.80;3.83;;;12.60;99.90;;;;;;5032522;28;20230;-87
2021/10/22 11:29:17;;;;;;;16.40;5.13;;;12.50;99.90;;;;;;5033374;28;20214;-82
2021/10/22 11:31:46;;;;;;;19.17;4.73;;;12.40;99.90;;;;;;5031243;28;20222;-86
2021/10/22 11:34:16;;;;;;;18.70;3.87;;;12.40;99.90;;;;;;5028924;28;20206;-89
2021/10/22 11:36:52;;;;;;;15.80;3.60;;;12.30;99.90;;;;;;5027658;28;20207;-86
2021/10/22 11:39:21;;;;;;;18.87;4.20;;;12.30;99.90;;;;;;5030130;28;20590;-90
2021/10/22 11:42:05;;;;;;;17.10;3.53;;;12.20;99.90;;;;;;5031520;28;20241;-87
2021/10/22 11:44:32;;;;;;;20.37;3.90;;;12.00;99.90;;;;;;5027712;28;20218;-85
2021/10/22 11:46:59;;;;;;;22.30;3.80;;;11.90;99.90;;;;;;5031939;28;20219;-88
2021/10/22 11:49:29;;;;;;;26.13;4.87;;;11.80;99.90;;;;;;5032339;28;20218;-93
2021/10/22 11:51:59;;;;;;;22.90;4.97;;;11.90;99.90;;;;;;5028276;28;20846;-91
2021/10/22 11:54:30;;;;;;;17.60;4.03;;;11.90;99.90;;;;;;5031042;28;20635;-91
2021/10/22 11:56:59;;;;;;;27.83;6.13;;;11.90;99.90;;;;;;5032419;28;20281;-93
2021/10/22 11:59:32;;;;;;;12.77;3.50;;;11.80;99.90;;;;;;5018473;28;20265;-95
2021/10/22 12:02:07;;;;;;;10.43;2.70;;;11.80;99.90;;;;;;5032273;28;20237;-89
2021/10/22 12:04:35;;;;;;;13.00;2.90;;;11.70;99.90;;;;;;5031507;28;20215;-90
2021/10/22 12:07:09;;;;;;;16.13;2.90;;;11.70;99.90;;;;;;5032212;28;20218;-92
2021/10/22 12:09:38;;;;;;;10.93;1.60;;;11.60;99.90;;;;;;5031031;28;20217;-90
2021/10/22 12:12:11;;;;;;;11.00;2.10;;;11.60;99.90;;;;;;5029961;28;20214;-92
2021/10/22 12:14:41;;;;;;;9.43;2.07;;;11.60;99.90;;;;;;5028200;28;20298;-92
2021/10/22 12:17:12;;;;;;;12.60;2.13;;;11.60;99.90;;;;;;5034485;28;20222;-91
2021/10/22 12:19:40;;;;;;;9.03;2.10;;;11.60;99.90;;;;;;5031701;28;20223;-88
2021/10/22 12:22:09;;;;;;;6.13;1.50;;;11.70;99.90;;;;;;5033481;28;20320;-90
2021/10/22 12:24:44;;;;;;;11.40;2.07;;;11.60;99.90;;;;;;5032140;28;20214;-88
2021/10/22 12:27:15;;;;;;;7.60;2.00;;;11.60;99.90;;;;;;5030474;28;20548;-89
2021/10/22 12:29:57;;;;;;;10.97;2.13;;;11.60;99.90;;;;;;5030850;28;20233;-89
2021/10/22 12:32:38;;;;;;;11.07;2.40;;;11.70;99.90;;;;;;5032681;28;20553;-90
2021/10/22 12:35:15;;;;;;;7.07;2.03;;;11.80;99.90;;;;;;5031240;28;20210;-91
2021/10/22 12:37:45;;;;;;;16.40;6.30;;;11.80;99.90;;;;;;5029675;28;20242;-87
2021/10/22 12:40:21;;;;;;;12.63;3.07;;;11.90;99.90;;;;;;5029640;28;20228;-88
2021/10/22 12:43:05;;;;;;;14.07;3.77;;;11.90;99.90;;;;;;5028178;28;20230;-93
2021/10/22 12:45:33;;;;;;;8.27;2.10;;;12.00;99.90;;;;;;5028493;28;20675;-92
2021/10/22 12:48:07;;;;;;;11.53;2.93;;;12.00;99.90;;;;;;5033046;28;20241;-91
2021/10/22 12:50:36;;;;;;;16.37;3.20;;;12.00;99.90;;;;;;5031311;28;20218;-88
2021/10/22 12:53:08;;;;;;;11.57;2.70;;;12.10;99.90;;;;;;5031233;28;20758;-92
2021/10/22 12:55:36;;;;;;;8.20;2.10;;;12.00;99.90;;;;;;5031350;28;20246;-87
2021/10/22 12:58:14;;;;;;;9.93;1.97;;;11.80;99.90;;;;;;5031146;28;20207;-93